createdAt,value
2019-05-23T00:03:15.634Z,2.67
2019-05-23T00:08:21.585Z,2.10
2019-05-23T00:13:43.414Z,2.02
2019-05-23T00:18:47.301Z,2.25
2019-05-23T00:23:51.993Z,1.52
2019-05-23T00:29:09.699Z,1.52
2019-05-23T00:34:02.827Z,1.10
2019-05-23T00:39:09.214Z,1.25
2019-05-23T00:44:13.364Z,1.00
2019-05-23T00:49:18.657Z,1.00
2019-05-23T00:54:23.013Z,0.88
2019-05-23T00:59:27.999Z,0.70
2019-05-23T01:04:32.117Z,0.82
2019-05-23T01:09:38.513Z,0.90
2019-05-23T01:14:42.418Z,0.90
2019-05-23T01:19:47.219Z,1.00
2019-05-23T01:24:53.351Z,0.93
2019-05-23T01:29:58.193Z,0.90
2019-05-23T01:35:04.376Z,0.90
2019-05-23T01:40:09.078Z,0.98
2019-05-23T01:45:15.970Z,1.00
2019-05-23T01:50:26.212Z,0.50
2019-05-23T01:55:30.275Z,0.60
2019-05-23T02:00:34.471Z,0.70
2019-05-23T02:05:39.514Z,0.53
2019-05-23T02:10:43.904Z,0.60
2019-05-23T02:15:48.491Z,0.70
2019-05-23T02:20:52.802Z,0.68
2019-05-23T02:25:58.155Z,0.60
2019-05-23T02:31:02.831Z,0.47
2019-05-23T02:36:06.987Z,0.40
2019-05-23T02:41:21.219Z,0.20
2019-05-23T02:46:29.267Z,0.30
2019-05-23T02:51:37.346Z,0.40
2019-05-23T02:56:41.591Z,0.30
2019-05-23T03:02:13.922Z,0.60
2019-05-23T03:07:20.214Z,0.40
2019-05-23T03:12:25.944Z,0.47
2019-05-23T03:17:32.854Z,0.50
2019-05-23T03:22:48.518Z,0.50
2019-05-23T03:27:53.144Z,0.40
2019-05-23T03:33:02.058Z,0.50
2019-05-23T03:38:06.965Z,0.50
2019-05-23T03:43:13.799Z,0.65
2019-05-23T03:48:19.446Z,0.60
2019-05-23T03:53:25.637Z,0.60
2019-05-23T03:58:29.882Z,0.70
2019-05-23T04:03:39.716Z,0.72
2019-05-23T04:08:41.907Z,0.72
2019-05-23T04:13:45.953Z,1.20
2019-05-23T04:18:50.301Z,1.10
2019-05-23T04:23:54.341Z,1.37
2019-05-23T04:28:58.791Z,1.05
2019-05-23T04:34:02.991Z,1.52
2019-05-23T04:39:07.751Z,1.17
2019-05-23T04:44:11.640Z,2.45
2019-05-23T04:49:15.600Z,2.62
2019-05-23T04:54:19.426Z,2.58
2019-05-23T04:59:24.384Z,3.60
2019-05-23T05:04:28.681Z,2.90
2019-05-23T05:09:33.293Z,2.80
2019-05-23T05:14:37.486Z,2.77
2019-05-23T05:19:41.354Z,2.40
2019-05-23T05:24:45.661Z,2.22
2019-05-23T05:29:49.653Z,2.25
2019-05-23T05:34:53.841Z,2.30
2019-05-23T05:39:58.976Z,2.33
2019-05-23T05:45:03.863Z,2.52
2019-05-23T05:50:09.348Z,3.67
2019-05-23T05:55:13.814Z,2.60
2019-05-23T06:00:29.301Z,2.75
2019-05-23T06:05:46.732Z,2.37
2019-05-23T06:10:51.247Z,1.98
2019-05-23T06:15:55.175Z,1.50
2019-05-23T06:20:59.506Z,1.42
2019-05-23T06:26:03.758Z,1.42
2019-05-23T06:31:09.141Z,1.40
2019-05-23T06:36:13.624Z,1.40
2019-05-23T06:41:18.582Z,1.60
2019-05-23T06:46:22.494Z,1.32
2019-05-23T06:51:26.716Z,1.02
2019-05-23T06:56:30.502Z,1.25
2019-05-23T07:01:34.595Z,1.35
2019-05-23T07:06:38.591Z,2.17
2019-05-23T07:11:42.427Z,1.90
2019-05-23T07:16:50.088Z,1.90
2019-05-23T07:21:51.804Z,2.52
2019-05-23T07:26:55.790Z,2.80
2019-05-23T07:31:59.690Z,3.08
2019-05-23T07:37:04.778Z,4.62
2019-05-23T07:42:10.260Z,4.40
2019-05-23T07:47:15.007Z,3.62
2019-05-23T07:52:18.796Z,4.22
2019-05-23T07:57:24.223Z,4.75
2019-05-23T08:02:36.519Z,5.00
2019-05-23T08:07:40.982Z,4.58
2019-05-23T08:12:45.744Z,4.03
2019-05-23T08:17:50.170Z,4.62
2019-05-23T08:22:53.951Z,3.50
2019-05-23T08:27:58.438Z,4.28
2019-05-23T08:33:02.768Z,4.42
2019-05-23T08:38:08.173Z,3.12
2019-05-23T08:43:12.266Z,3.50
2019-05-23T08:48:16.497Z,4.50
2019-05-23T08:53:20.387Z,4.05
2019-05-23T08:58:30.170Z,3.90
2019-05-23T09:03:34.110Z,3.60
2019-05-23T09:08:38.877Z,2.92
2019-05-23T09:13:43.125Z,2.87
2019-05-23T09:18:46.899Z,3.33
2019-05-23T09:23:51.338Z,3.00
2019-05-23T09:28:55.219Z,3.00
2019-05-23T09:33:59.160Z,2.92
2019-05-23T09:39:04.622Z,4.97
2019-05-23T09:44:08.553Z,5.15
2019-05-23T09:49:12.533Z,5.47
2019-05-23T09:54:16.484Z,4.72
2019-05-23T09:59:20.385Z,3.37
2019-05-23T10:04:24.208Z,14.25
2019-05-23T10:09:28.210Z,6.00
2019-05-23T10:14:33.617Z,3.60
2019-05-23T10:19:37.805Z,5.67
2019-05-23T10:24:41.750Z,7.67
2019-05-23T10:29:45.575Z,24.90
2019-05-23T10:34:49.504Z,4.37
2019-05-23T10:39:55.260Z,5.08
2019-05-23T10:44:59.107Z,17.35
2019-05-23T10:50:07.743Z,5.40
2019-05-23T10:55:09.986Z,6.65
2019-05-23T11:00:15.920Z,5.50
2019-05-23T11:05:20.900Z,3.92
2019-05-23T11:10:25.289Z,4.75
2019-05-23T11:15:29.224Z,4.55
2019-05-23T11:20:35.961Z,4.33
2019-05-23T11:25:40.829Z,6.28
2019-05-23T11:30:55.629Z,7.35
2019-05-23T11:35:59.490Z,8.93
2019-05-23T11:41:04.020Z,6.95
2019-05-23T11:46:19.039Z,14.18
2019-05-23T11:51:25.505Z,26.90
2019-05-23T11:56:28.549Z,9.93
2019-05-23T12:01:36.815Z,9.53
2019-05-23T12:06:54.465Z,7.27
2019-05-23T12:11:47.601Z,8.60
2019-05-23T12:16:52.208Z,9.38
2019-05-23T12:21:56.675Z,9.90
2019-05-23T12:27:00.554Z,8.53
2019-05-23T12:32:06.429Z,9.85
2019-05-23T12:37:19.966Z,12.68
2019-05-23T12:42:16.022Z,11.70
2019-05-23T12:47:21.529Z,6.58
2019-05-23T12:52:25.889Z,11.53
2019-05-23T12:57:30.175Z,10.38
2019-05-23T13:02:34.813Z,9.40
2019-05-23T13:07:39.156Z,12.28
2019-05-23T13:12:42.975Z,11.55
2019-05-23T13:17:47.254Z,16.30
2019-05-23T13:22:51.281Z,14.15
2019-05-23T13:27:58.621Z,10.25
2019-05-23T13:33:03.730Z,9.90
2019-05-23T13:38:06.947Z,10.05
2019-05-23T13:43:11.206Z,10.30
2019-05-23T13:48:15.129Z,10.95
2019-05-23T13:53:21.018Z,8.85
2019-05-23T13:58:25.482Z,11.43
2019-05-23T14:03:32.188Z,13.03
2019-05-23T14:08:36.094Z,11.55
2019-05-23T14:13:40.072Z,11.88
2019-05-23T14:18:44.414Z,10.82
2019-05-23T14:23:49.799Z,14.05
2019-05-23T14:28:55.269Z,12.47
2019-05-23T14:34:03.453Z,11.65
2019-05-23T14:39:11.236Z,10.65
2019-05-23T14:44:15.462Z,21.33
2019-05-23T14:49:23.580Z,12.53
2019-05-23T14:54:33.463Z,12.60
2019-05-23T14:59:37.403Z,11.33
2019-05-23T15:04:41.298Z,10.78
2019-05-23T15:09:45.158Z,10.45
2019-05-23T15:20:40.746Z,11.40
2019-05-23T15:25:46.245Z,13.60
2019-05-23T15:30:50.238Z,10.68
2019-05-23T15:35:54.477Z,10.65
2019-05-23T15:40:58.282Z,11.10
2019-05-23T15:46:02.112Z,11.70
2019-05-23T15:51:07.662Z,11.73
2019-05-23T15:56:26.740Z,11.83
2019-05-23T16:01:32.663Z,11.93
2019-05-23T16:06:36.560Z,12.55
2019-05-23T16:11:43.249Z,13.72
2019-05-23T16:16:47.700Z,12.78
2019-05-23T16:21:51.594Z,12.37
2019-05-23T16:26:56.991Z,13.13
2019-05-23T16:32:00.925Z,13.40
2019-05-23T16:37:04.844Z,12.30
2019-05-23T16:42:10.270Z,12.75
2019-05-23T16:47:14.154Z,13.60
2019-05-23T16:52:18.288Z,13.28
2019-05-23T16:57:32.901Z,14.65
2019-05-23T17:02:55.021Z,15.83
2019-05-23T17:08:03.995Z,15.63
2019-05-23T17:13:10.455Z,17.23
2019-05-23T17:18:16.000Z,17.15
2019-05-23T17:23:41.433Z,14.60
2019-05-23T17:28:49.687Z,14.63
2019-05-23T17:38:57.311Z,13.60
2019-05-23T17:44:01.373Z,16.87
2019-05-23T17:49:05.827Z,15.70
2019-05-23T17:54:14.352Z,15.23
2019-05-23T17:59:18.236Z,12.55
2019-05-23T18:04:23.092Z,14.40
2019-05-23T18:09:27.712Z,19.10
2019-05-23T18:14:31.724Z,17.60
2019-05-23T18:19:37.214Z,16.02
2019-05-23T18:24:44.787Z,12.88
2019-05-23T18:29:48.693Z,12.47
2019-05-23T18:34:53.220Z,14.00
2019-05-23T18:39:57.192Z,12.00
2019-05-23T18:45:02.396Z,12.90
2019-05-23T18:50:08.982Z,12.30
2019-05-23T18:55:16.696Z,12.60
2019-05-23T19:00:23.484Z,14.93
2019-05-23T19:05:28.386Z,14.10
2019-05-23T19:10:32.792Z,13.83
2019-05-23T19:15:36.776Z,14.40
2019-05-23T19:20:40.809Z,13.58
2019-05-23T19:25:45.793Z,12.93
2019-05-23T19:30:49.914Z,13.48
2019-05-23T19:35:54.008Z,12.88
2019-05-23T19:40:58.470Z,12.20
2019-05-23T19:46:02.483Z,12.73
2019-05-23T19:51:10.261Z,12.45
2019-05-23T19:56:14.251Z,11.50
2019-05-23T20:01:18.662Z,12.65
2019-05-23T20:06:22.404Z,12.58
2019-05-23T20:11:29.243Z,12.73
2019-05-23T20:16:33.872Z,12.88
2019-05-23T20:21:37.734Z,11.83
2019-05-23T20:26:41.652Z,11.57
2019-05-23T20:31:48.472Z,10.30
2019-05-23T20:36:51.177Z,9.23
2019-05-23T20:42:10.211Z,8.50
2019-05-23T20:47:00.710Z,8.10
2019-05-23T20:52:04.921Z,7.42
2019-05-23T20:57:11.894Z,6.92
2019-05-23T21:02:16.043Z,7.45
2019-05-23T21:07:20.024Z,7.55
2019-05-23T21:12:30.165Z,5.90
2019-05-23T21:17:31.494Z,6.60
2019-05-23T21:22:35.238Z,6.22
2019-05-23T21:27:39.206Z,6.50
2019-05-23T21:32:43.018Z,6.25
2019-05-23T21:37:46.946Z,5.97
2019-05-23T21:42:50.829Z,6.22
2019-05-23T21:47:54.812Z,7.45
2019-05-23T21:52:58.643Z,6.87
2019-05-23T21:58:02.513Z,6.42
2019-05-23T22:03:08.474Z,7.20
2019-05-23T22:08:12.388Z,7.62
2019-05-23T22:13:19.822Z,7.12
2019-05-23T22:18:22.962Z,6.42
2019-05-23T22:23:26.975Z,7.20
2019-05-23T22:28:30.870Z,7.05
2019-05-23T22:33:36.602Z,8.15
2019-05-23T22:38:40.440Z,7.72
2019-05-23T22:43:44.359Z,7.03
2019-05-23T22:48:48.203Z,7.17
2019-05-23T22:53:52.067Z,6.72
2019-05-23T22:58:55.946Z,6.28
2019-05-23T23:03:59.975Z,6.55
2019-05-23T23:09:05.592Z,6.33
2019-05-23T23:14:09.482Z,6.62
2019-05-23T23:19:13.449Z,6.83
2019-05-23T23:24:17.261Z,7.25
2019-05-23T23:29:21.120Z,6.35
2019-05-23T23:34:25.382Z,5.90
2019-05-23T23:39:29.223Z,6.37
2019-05-23T23:44:35.160Z,6.83
2019-05-23T23:49:57.125Z,5.62
2019-05-23T23:55:19.050Z,5.53
